Terminal Aerodrome Forecast
Issued by NWS

Home | Current Version | Previous Version | Text Only | Print | Product List | Glossary On
Versions: 1 2 3 4 5 6 7 8 9 10 11 12 13 14 15 16 17
000
FTUS46 KLOX 260540
TAFBUR
TAF
KBUR 260540Z 2606/2706 VRB03KT P6SM BKN025
     FM261100 VRB03KT 6SM -RA BR SCT015 OVC025
     FM261700 13007KT P6SM VCSH BKN025 OVC040
     FM262100 17007KT P6SM BKN040 BKN080
     FM270300 VRB03KT P6SM BKN050=

USA.gov is the U.S. government's official web portal to all federal, state and local government web resources and services.